< < Back
Terminal Aerodrome Forecast


Current Version              Previous Versions:   1  2  3  4  5  6  7  8  9  

Terminal Aerodrome Forecast

662
FTUS42 KILM 301128
TAFFLO
TAF
KFLO 301128Z 3012/3112 01005KT P6SM SKC
     FM301700 08008KT P6SM SCT035 SCT140 SCT250
     FM310100 VRB03KT P6SM FEW040 SCT140 BKN250=



Latest METAR

219
SAUS70 KWBC 302000 RRB
MTRFLO
METAR KFLO 301953Z 07005KT 10SM CLR 32/15 A3002 RMK AO2 SLP161
T03220150


USA.gov is the U.S. government's official web portal to all federal, state and local government web resources and services.